KRDG

Reading Regional / Carl A Spaatz Field Airport

Reading, Pennsylvania, USA
METAR KRDG 202354Z 14003KT 10SM OVC039 23/19 A3009 RMK AO2 SLP193 T02280189 10256 20228 51002
Observed Flight Rules
Aug-20 @ 23:54 UTC (15 minutes ago) Visual Flight Rules
Wind Visibility Clouds
140° at 3 knots 10 miles
  • Overcast at 3,900' AGL
Temperatures Readings
Current 23°C / 73°F
Dewpoint 19°C / 66°F
Humidity 78%
Altimeter 30.09" Hg
Pressure 1019.3 hPa
Elevation 109
METAR KRDG 202354Z 14003KT 10SM OVC039 23/19 A3009 RMK AO2 SLP193 T02280189 10256 20228 51002
Observed Flight Rules
Aug-20 @ 23:54 UTC
(15 minutes ago)
VFR
Wind Visibility
140° at 3 knots 10 miles
Clouds
  • Overcast at 3,900' AGL
Temperature Dewpoint
23°C / 73°F 19°C / 66°F
Humidity Altimeter Pressure
78% 30.09" Hg 1019.3 hPa